Time;durP1;ratioP1;P1;durP2;ratioP2;P2;SDS_P1;SDS_P2;PMS_P1;PMS_P2;Temp;Humidity;BMP_temperature;BMP_pressure;BME280_temperature;BME280_humidity;BME280_pressure;Samples;Min_cycle;Max_cycle;Signal;HPM_P1;HPM_P2
2023/10/27 00:01:09;;;;;;;7.13;2.25;;;10.70;99.90;;;;;;5053985;28;20051;-50
2023/10/27 00:03:35;;;;;;;4.68;1.67;;;10.70;99.90;;;;;;5056872;28;20025;-50
2023/10/27 00:06:00;;;;;;;9.27;2.70;;;10.70;99.90;;;;;;5057462;28;20081;-51
2023/10/27 00:08:26;;;;;;;8.75;2.25;;;10.60;99.90;;;;;;5057716;28;20033;-49
2023/10/27 00:10:53;;;;;;;10.63;3.38;;;10.50;99.90;;;;;;5057481;28;20033;-48
2023/10/27 00:13:18;;;;;;;6.75;2.08;;;10.50;99.90;;;;;;5057684;28;20029;-48
2023/10/27 00:15:45;;;;;;;10.65;1.98;;;10.40;99.90;;;;;;5057609;28;20346;-49
2023/10/27 00:18:11;;;;;;;7.72;2.22;;;10.40;99.90;;;;;;5057641;28;20021;-51
2023/10/27 00:20:37;;;;;;;11.05;2.72;;;10.30;99.90;;;;;;5057461;28;20048;-50
2023/10/27 00:23:02;;;;;;;10.85;2.20;;;10.30;99.90;;;;;;5057325;28;20103;-51
2023/10/27 00:25:28;;;;;;;7.68;2.22;;;10.30;99.90;;;;;;5057001;28;20044;-50
2023/10/27 00:27:53;;;;;;;7.78;1.80;;;10.20;99.90;;;;;;5057387;28;20025;-51
2023/10/27 00:30:19;;;;;;;8.52;2.03;;;10.20;99.90;;;;;;5057006;28;20445;-51
2023/10/27 00:32:46;;;;;;;12.63;3.67;;;10.20;99.90;;;;;;5057428;28;20401;-52
2023/10/27 00:35:11;;;;;;;10.27;2.40;;;10.20;99.90;;;;;;5057155;28;20025;-51
2023/10/27 00:37:37;;;;;;;9.73;2.75;;;10.20;99.90;;;;;;5057255;28;20385;-52
2023/10/27 00:40:03;;;;;;;11.75;2.75;;;10.10;99.90;;;;;;5056599;28;20053;-52
2023/10/27 00:42:29;;;;;;;9.65;2.70;;;10.10;99.90;;;;;;5056860;28;20040;-48
2023/10/27 00:44:55;;;;;;;8.70;2.25;;;10.10;99.90;;;;;;5055849;28;20424;-51
2023/10/27 00:47:20;;;;;;;8.20;3.00;;;10.10;99.90;;;;;;5056841;28;20029;-50
2023/10/27 00:49:46;;;;;;;8.25;2.55;;;10.00;99.90;;;;;;5057098;28;20029;-50
2023/10/27 00:52:12;;;;;;;6.75;2.60;;;10.00;99.90;;;;;;5056932;28;20043;-50
2023/10/27 00:54:38;;;;;;;7.50;2.80;;;10.00;99.90;;;;;;5056053;28;20017;-51
2023/10/27 00:57:04;;;;;;;13.05;3.80;;;9.90;99.90;;;;;;5055650;28;20484;-51
2023/10/27 00:59:32;;;;;;;13.25;3.80;;;9.90;99.90;;;;;;5056698;28;20467;-51
2023/10/27 01:01:58;;;;;;;7.90;2.80;;;9.90;99.90;;;;;;5056978;28;20063;-47
2023/10/27 01:04:25;;;;;;;12.05;3.42;;;9.90;99.90;;;;;;5056666;28;20446;-49
2023/10/27 01:06:51;;;;;;;13.52;2.90;;;9.90;99.90;;;;;;5056309;28;20045;-51
2023/10/27 01:09:16;;;;;;;10.25;2.60;;;10.00;99.90;;;;;;5038933;28;20033;-48
2023/10/27 01:11:42;;;;;;;10.23;2.65;;;10.10;99.90;;;;;;5056536;28;20033;-51
2023/10/27 01:14:08;;;;;;;10.70;2.95;;;10.10;99.90;;;;;;5054726;28;20056;-51
2023/10/27 01:16:33;;;;;;;9.35;2.30;;;10.10;99.90;;;;;;5055439;28;20072;-51
2023/10/27 01:18:59;;;;;;;8.15;2.63;;;10.10;99.90;;;;;;5056212;28;20040;-51
2023/10/27 01:21:25;;;;;;;6.53;2.40;;;10.10;99.90;;;;;;5056256;28;20048;-51
2023/10/27 01:23:50;;;;;;;8.18;2.45;;;10.10;99.90;;;;;;5056410;28;20036;-50
2023/10/27 01:26:16;;;;;;;7.93;2.28;;;10.10;99.90;;;;;;5055755;28;20124;-50
2023/10/27 01:28:41;;;;;;;7.68;2.38;;;10.00;99.90;;;;;;5056196;28;20446;-50
2023/10/27 01:31:07;;;;;;;8.13;2.22;;;10.00;99.90;;;;;;5056210;28;20324;-51
2023/10/27 01:33:34;;;;;;;6.20;2.10;;;9.90;99.90;;;;;;5056836;28;20040;-51
2023/10/27 01:35:59;;;;;;;10.18;2.00;;;9.90;99.90;;;;;;5056089;28;20048;-51
2023/10/27 01:38:25;;;;;;;5.80;1.90;;;9.90;99.90;;;;;;5054815;28;20032;-51
2023/10/27 01:40:51;;;;;;;7.82;2.45;;;9.80;99.90;;;;;;5055755;28;20446;-49
2023/10/27 01:43:17;;;;;;;6.55;2.03;;;9.80;99.90;;;;;;5055501;28;20033;-49
2023/10/27 01:45:42;;;;;;;9.75;2.28;;;9.80;99.90;;;;;;5055926;28;20029;-49
2023/10/27 01:48:08;;;;;;;5.53;1.92;;;9.70;99.90;;;;;;5055888;28;20450;-49
2023/10/27 01:50:34;;;;;;;6.70;2.20;;;9.70;99.90;;;;;;5055934;28;20332;-49
2023/10/27 01:52:59;;;;;;;5.82;1.88;;;9.70;99.90;;;;;;5055543;28;20056;-49
2023/10/27 01:55:25;;;;;;;7.30;2.25;;;9.60;99.90;;;;;;5055622;28;20476;-48
2023/10/27 01:57:50;;;;;;;8.93;3.20;;;9.60;99.90;;;;;;5055270;28;20134;-49
2023/10/27 02:00:16;;;;;;;8.38;2.50;;;9.60;99.90;;;;;;5055227;28;20036;-48
2023/10/27 02:02:42;;;;;;;8.85;2.25;;;9.60;99.90;;;;;;5055647;28;20044;-51
2023/10/27 02:05:08;;;;;;;7.45;1.95;;;9.60;99.90;;;;;;5055509;28;20033;-50
2023/10/27 02:07:34;;;;;;;9.80;2.58;;;9.60;99.90;;;;;;5054123;28;20056;-50
2023/10/27 02:10:00;;;;;;;6.95;1.85;;;9.50;99.90;;;;;;5037578;28;20040;-47
2023/10/27 02:12:28;;;;;;;8.43;2.10;;;9.50;99.90;;;;;;5055517;28;20346;-51
2023/10/27 02:14:54;;;;;;;8.00;2.53;;;9.50;99.90;;;;;;5055227;28;20029;-50
2023/10/27 02:17:20;;;;;;;5.32;1.95;;;9.40;99.90;;;;;;5054285;28;20477;-51
2023/10/27 02:19:47;;;;;;;6.10;2.47;;;9.40;99.90;;;;;;5055306;28;20037;-51
2023/10/27 02:22:13;;;;;;;8.57;2.67;;;9.40;99.90;;;;;;5055242;28;20048;-51
2023/10/27 02:24:38;;;;;;;10.00;2.53;;;9.40;99.90;;;;;;5054988;28;20040;-51
2023/10/27 02:27:04;;;;;;;11.27;2.72;;;9.30;99.90;;;;;;5054868;28;20029;-52
2023/10/27 02:29:30;;;;;;;3.40;1.65;;;9.30;99.90;;;;;;5055085;28;20442;-49
2023/10/27 02:31:55;;;;;;;6.35;2.30;;;9.30;99.90;;;;;;5055411;28;20383;-51
2023/10/27 02:34:21;;;;;;;6.78;2.35;;;9.20;99.90;;;;;;5055214;28;20056;-51
2023/10/27 02:36:47;;;;;;;6.40;2.00;;;9.20;99.90;;;;;;5054777;28;20358;-52
2023/10/27 02:39:12;;;;;;;8.20;2.58;;;9.30;99.90;;;;;;5054862;28;20029;-51
2023/10/27 02:41:38;;;;;;;6.32;2.33;;;9.20;99.90;;;;;;5054931;28;20036;-48
2023/10/27 02:44:04;;;;;;;8.63;2.53;;;9.20;99.90;;;;;;5054468;28;20094;-51
2023/10/27 02:46:30;;;;;;;7.28;2.10;;;9.20;99.90;;;;;;5054700;28;20040;-49
2023/10/27 02:48:56;;;;;;;7.35;3.03;;;9.20;99.90;;;;;;5054725;28;20365;-51
2023/10/27 02:51:21;;;;;;;5.40;1.90;;;9.20;99.90;;;;;;5053716;28;20083;-48
2023/10/27 02:53:47;;;;;;;4.63;1.80;;;9.30;99.90;;;;;;5054779;28;20032;-50
2023/10/27 02:56:13;;;;;;;5.65;1.95;;;9.30;99.90;;;;;;5054799;28;20037;-50
2023/10/27 02:58:38;;;;;;;8.50;2.22;;;9.30;99.90;;;;;;5054677;28;20438;-51
2023/10/27 03:01:11;;;;;;;8.38;2.33;;;9.40;99.90;;;;;;5054622;28;20118;-51
2023/10/27 03:03:36;;;;;;;5.95;1.60;;;9.30;99.90;;;;;;5054800;28;20489;-51
2023/10/27 03:06:03;;;;;;;5.38;1.73;;;9.40;99.90;;;;;;5054409;28;20088;-50
2023/10/27 03:08:28;;;;;;;4.72;1.50;;;9.30;99.90;;;;;;5054374;28;20425;-51
2023/10/27 03:10:54;;;;;;;3.13;1.27;;;9.30;99.90;;;;;;5054509;28;20051;-50
2023/10/27 03:13:20;;;;;;;2.53;1.50;;;9.30;99.90;;;;;;5054442;28;20461;-51
2023/10/27 03:15:46;;;;;;;4.78;1.52;;;9.30;99.90;;;;;;5054900;28;20060;-51
2023/10/27 03:18:12;;;;;;;7.18;1.40;;;9.40;99.90;;;;;;5054583;28;20063;-51
2023/10/27 03:20:38;;;;;;;5.97;1.45;;;9.30;99.90;;;;;;5054492;28;20063;-50
2023/10/27 03:23:03;;;;;;;3.78;1.48;;;9.30;99.90;;;;;;5054543;28;20029;-51
2023/10/27 03:25:29;;;;;;;3.35;1.20;;;9.30;99.90;;;;;;5054662;28;20450;-51
2023/10/27 03:27:55;;;;;;;4.88;1.33;;;9.30;99.90;;;;;;5054395;28;20025;-51
2023/10/27 03:30:21;;;;;;;4.63;1.42;;;9.30;99.90;;;;;;5054539;28;20434;-50
2023/10/27 03:32:47;;;;;;;3.65;1.40;;;9.30;99.90;;;;;;5054137;28;20352;-51
2023/10/27 03:35:14;;;;;;;11.20;1.60;;;9.40;99.90;;;;;;5054344;28;20026;-50
2023/10/27 03:37:40;;;;;;;7.35;1.58;;;9.40;99.90;;;;;;5055561;28;20472;-51
2023/10/27 03:40:06;;;;;;;5.63;1.48;;;9.40;99.90;;;;;;5058365;28;20041;-51
2023/10/27 03:42:32;;;;;;;4.68;1.35;;;9.50;99.90;;;;;;5058091;28;20094;-51
2023/10/27 03:44:57;;;;;;;4.78;1.52;;;9.50;99.90;;;;;;5058447;28;20385;-51
2023/10/27 03:47:23;;;;;;;4.72;1.83;;;9.50;99.90;;;;;;5057777;28;20032;-50
2023/10/27 03:49:49;;;;;;;6.57;1.58;;;9.40;99.90;;;;;;5057646;28;20472;-51
2023/10/27 03:52:16;;;;;;;5.75;1.70;;;9.40;99.90;;;;;;5058096;28;20128;-50
2023/10/27 03:54:41;;;;;;;4.90;1.40;;;9.50;99.90;;;;;;5057933;28;20442;-51
2023/10/27 03:57:07;;;;;;;4.03;1.55;;;9.50;99.90;;;;;;5058021;28;20048;-50
2023/10/27 03:59:32;;;;;;;4.05;1.35;;;9.50;99.90;;;;;;5057857;28;20032;-51
2023/10/27 04:01:58;;;;;;;4.93;1.70;;;9.40;99.90;;;;;;5056739;28;20099;-50
2023/10/27 04:04:24;;;;;;;5.15;1.60;;;9.40;99.90;;;;;;5057516;28;20048;-50
2023/10/27 04:06:50;;;;;;;5.32;1.88;;;9.50;99.90;;;;;;5057348;28;20068;-51
2023/10/27 04:09:15;;;;;;;8.52;1.65;;;9.40;99.90;;;;;;5057678;28;20044;-51
2023/10/27 04:11:42;;;;;;;5.55;1.60;;;9.40;99.90;;;;;;5057620;28;20041;-51
2023/10/27 04:14:07;;;;;;;6.80;1.40;;;9.40;99.90;;;;;;5056543;28;20485;-50
2023/10/27 04:16:34;;;;;;;6.20;1.70;;;9.40;99.90;;;;;;5057501;28;20037;-46
2023/10/27 04:19:00;;;;;;;8.27;2.40;;;9.40;99.90;;;;;;5057487;28;20033;-47
2023/10/27 04:21:25;;;;;;;3.90;1.67;;;9.40;99.90;;;;;;5057430;28;20500;-50
2023/10/27 04:23:51;;;;;;;5.05;1.48;;;9.40;99.90;;;;;;5057733;28;20043;-48
2023/10/27 04:26:17;;;;;;;5.53;1.60;;;9.40;99.90;;;;;;5057440;28;20094;-47
2023/10/27 04:28:42;;;;;;;8.65;2.10;;;9.40;99.90;;;;;;5057341;28;20029;-50
2023/10/27 04:31:09;;;;;;;4.03;1.58;;;9.30;99.90;;;;;;5057331;28;20186;-49
2023/10/27 04:33:37;;;;;;;7.18;1.95;;;9.40;99.90;;;;;;5056844;28;20186;-47
2023/10/27 04:36:06;;;;;;;7.85;1.85;;;9.30;99.90;;;;;;5057158;28;20039;-47
2023/10/27 04:38:32;;;;;;;6.18;1.98;;;9.40;99.90;;;;;;5057343;28;20047;-50
2023/10/27 04:40:57;;;;;;;4.38;1.80;;;9.40;99.90;;;;;;5056959;28;20401;-50
2023/10/27 04:43:23;;;;;;;5.30;1.60;;;9.30;99.90;;;;;;5057103;28;20350;-47
2023/10/27 04:45:49;;;;;;;4.53;1.58;;;9.30;99.90;;;;;;5055890;28;20052;-48
2023/10/27 04:48:15;;;;;;;7.65;1.52;;;9.40;99.90;;;;;;5056072;28;20304;-52
2023/10/27 04:50:41;;;;;;;10.52;2.05;;;9.40;99.90;;;;;;5056025;28;20031;-49
2023/10/27 04:53:07;;;;;;;9.13;1.83;;;9.40;99.90;;;;;;5056839;28;20091;-54
2023/10/27 04:55:33;;;;;;;9.80;2.20;;;9.30;99.90;;;;;;5056937;28;20351;-51
2023/10/27 04:57:58;;;;;;;8.77;1.95;;;9.30;99.90;;;;;;5056772;28;20029;-51
2023/10/27 05:00:24;;;;;;;6.53;1.92;;;9.30;99.90;;;;;;5055588;28;20029;-49
2023/10/27 05:02:53;;;;;;;6.93;2.30;;;9.30;99.90;;;;;;5056537;28;20044;-49
2023/10/27 05:05:20;;;;;;;10.27;1.83;;;9.30;99.90;;;;;;5056347;28;20438;-47
2023/10/27 05:07:47;;;;;;;7.82;2.00;;;9.30;99.90;;;;;;5055295;28;20446;-46
2023/10/27 05:10:13;;;;;;;7.00;1.92;;;9.30;99.90;;;;;;5056612;28;20025;-51
2023/10/27 05:12:39;;;;;;;7.93;1.65;;;9.20;99.90;;;;;;5055658;28;20056;-47
2023/10/27 05:15:05;;;;;;;6.40;1.55;;;9.20;99.90;;;;;;5056487;28;20441;-48
2023/10/27 05:17:36;;;;;;;4.60;1.70;;;9.10;99.90;;;;;;5056413;28;20040;-48
2023/10/27 05:20:03;;;;;;;5.15;1.73;;;9.10;99.90;;;;;;5055203;28;20028;-49
2023/10/27 05:22:30;;;;;;;7.43;1.55;;;9.00;99.90;;;;;;5055228;28;20041;-48
2023/10/27 05:24:57;;;;;;;5.85;1.48;;;9.00;99.90;;;;;;5056212;28;20176;-48
2023/10/27 05:27:26;;;;;;;4.65;1.40;;;8.90;99.90;;;;;;5056071;28;20442;-47
2023/10/27 05:29:52;;;;;;;5.88;1.90;;;8.90;99.90;;;;;;5056325;28;20442;-47
2023/10/27 05:32:17;;;;;;;5.10;2.00;;;8.90;99.90;;;;;;5056234;28;20039;-49
2023/10/27 05:34:44;;;;;;;9.80;2.00;;;8.80;99.90;;;;;;5056077;28;20029;-47
2023/10/27 05:37:10;;;;;;;8.13;1.90;;;8.80;99.90;;;;;;5055573;28;20060;-50
2023/10/27 05:39:35;;;;;;;11.50;2.30;;;8.80;99.90;;;;;;5055983;28;20075;-49
2023/10/27 05:42:01;;;;;;;7.47;4.40;;;8.80;99.90;;;;;;5054819;28;20056;-47
2023/10/27 05:44:27;;;;;;;5.50;2.60;;;8.70;99.90;;;;;;5054946;28;20103;-48
2023/10/27 05:46:52;;;;;;;8.88;2.80;;;8.70;99.90;;;;;;5055712;28;20037;-51
2023/10/27 05:49:18;;;;;;;5.78;2.10;;;8.70;99.90;;;;;;5055834;28;20029;-47
2023/10/27 05:51:45;;;;;;;6.00;2.35;;;8.70;99.90;;;;;;5055638;28;20029;-50
2023/10/27 05:54:11;;;;;;;4.90;1.70;;;8.70;99.90;;;;;;5055732;28;20053;-49
2023/10/27 05:56:37;;;;;;;7.05;2.03;;;8.60;99.90;;;;;;5055848;28;20040;-51
2023/10/27 05:59:04;;;;;;;5.10;1.85;;;8.60;99.90;;;;;;5055511;28;20044;-51
2023/10/27 06:01:30;;;;;;;4.38;1.90;;;8.60;99.90;;;;;;5054873;28;20090;-51
2023/10/27 06:03:57;;;;;;;5.20;1.95;;;8.60;99.90;;;;;;5055515;28;20107;-50
2023/10/27 06:06:24;;;;;;;7.22;1.92;;;8.60;99.90;;;;;;5055204;28;20048;-50
2023/10/27 06:08:49;;;;;;;6.53;2.25;;;8.60;99.90;;;;;;5055093;28;20032;-50
2023/10/27 06:11:15;;;;;;;9.88;1.80;;;8.60;99.90;;;;;;5055269;28;20055;-50
2023/10/27 06:13:41;;;;;;;8.23;2.00;;;8.50;99.90;;;;;;5055531;28;20430;-51
2023/10/27 06:16:07;;;;;;;8.77;2.40;;;8.50;99.90;;;;;;5055364;28;20052;-51
2023/10/27 06:18:33;;;;;;;6.70;2.33;;;8.60;99.90;;;;;;5055641;28;20039;-50
2023/10/27 06:20:58;;;;;;;6.00;1.80;;;8.50;99.90;;;;;;5055097;28;20048;-49
2023/10/27 06:23:24;;;;;;;8.02;2.45;;;8.50;99.90;;;;;;5055134;28;20044;-50
2023/10/27 06:25:50;;;;;;;10.60;2.80;;;8.50;99.90;;;;;;5054999;28;20031;-51
2023/10/27 06:28:16;;;;;;;7.78;2.20;;;8.50;99.90;;;;;;5037180;28;20025;-51
2023/10/27 06:30:42;;;;;;;9.10;2.85;;;8.40;99.90;;;;;;5054863;28;20405;-50
2023/10/27 06:33:07;;;;;;;6.78;1.75;;;8.50;99.90;;;;;;5054850;28;20029;-50
2023/10/27 06:35:33;;;;;;;8.18;2.00;;;8.50;99.90;;;;;;5054864;28;20518;-50
2023/10/27 06:37:59;;;;;;;9.88;2.08;;;8.50;99.90;;;;;;5055444;28;20354;-50
2023/10/27 06:40:24;;;;;;;5.85;2.15;;;8.50;99.90;;;;;;5054599;28;20033;-50
2023/10/27 06:42:50;;;;;;;7.10;1.90;;;8.60;99.90;;;;;;5054624;28;20044;-50
2023/10/27 06:45:16;;;;;;;8.45;2.80;;;8.50;99.90;;;;;;5054750;28;20052;-51
2023/10/27 06:47:41;;;;;;;10.48;2.70;;;8.50;99.90;;;;;;5054662;28;20029;-50
2023/10/27 06:50:07;;;;;;;7.43;2.30;;;8.40;99.90;;;;;;5054683;28;20028;-51
2023/10/27 06:52:33;;;;;;;11.48;2.92;;;8.30;99.90;;;;;;5054187;28;20036;-50
2023/10/27 06:54:59;;;;;;;12.02;2.78;;;8.30;99.90;;;;;;5053463;28;20037;-50
2023/10/27 06:57:25;;;;;;;9.13;2.60;;;8.40;99.90;;;;;;5054602;28;20040;-50
2023/10/27 06:59:55;;;;;;;9.38;2.72;;;8.30;99.90;;;;;;5054793;28;20033;-51
2023/10/27 07:02:20;;;;;;;6.78;2.40;;;8.30;99.90;;;;;;5053984;28;20200;-51
2023/10/27 07:04:46;;;;;;;11.40;2.55;;;8.30;99.90;;;;;;5054456;28;20064;-51
2023/10/27 07:07:11;;;;;;;10.40;2.70;;;8.30;99.90;;;;;;5053932;28;20080;-51
2023/10/27 07:09:38;;;;;;;7.47;2.72;;;8.30;99.90;;;;;;5054398;28;20033;-49
2023/10/27 07:12:04;;;;;;;7.53;2.15;;;8.30;99.90;;;;;;5056541;28;20031;-50
2023/10/27 07:14:30;;;;;;;4.82;1.80;;;8.30;99.90;;;;;;5058438;28;20025;-51
2023/10/27 07:16:59;;;;;;;5.82;2.10;;;8.20;99.90;;;;;;5058530;28;20430;-49
2023/10/27 07:19:25;;;;;;;3.85;1.70;;;8.20;99.90;;;;;;5058645;28;20391;-50
2023/10/27 07:21:51;;;;;;;8.27;2.40;;;8.20;99.90;;;;;;5058624;28;20051;-50
2023/10/27 07:24:16;;;;;;;13.25;3.10;;;8.20;99.90;;;;;;5058542;28;20041;-50
2023/10/27 07:26:42;;;;;;;5.18;2.55;;;8.30;99.90;;;;;;5058056;28;20044;-49
2023/10/27 07:29:07;;;;;;;9.48;2.90;;;8.30;99.90;;;;;;5058073;28;20044;-51
2023/10/27 07:31:33;;;;;;;8.95;2.50;;;8.40;99.90;;;;;;5057058;28;20451;-49
2023/10/27 07:33:59;;;;;;;8.52;3.33;;;8.50;99.90;;;;;;5058077;28;20033;-47
2023/10/27 07:36:25;;;;;;;9.55;4.20;;;8.60;99.90;;;;;;5058006;28;20037;-49
2023/10/27 07:38:50;;;;;;;7.95;2.85;;;8.70;99.90;;;;;;5057927;28;20117;-50
2023/10/27 07:41:16;;;;;;;7.70;3.30;;;8.80;99.90;;;;;;5056689;28;20083;-48
2023/10/27 07:43:42;;;;;;;9.55;3.13;;;9.30;99.90;;;;;;5057848;28;20035;-49
2023/10/27 07:46:07;;;;;;;21.60;19.45;;;9.70;99.90;;;;;;5057739;28;20041;-51
2023/10/27 07:48:33;;;;;;;9.07;3.17;;;9.80;99.90;;;;;;5057807;28;20077;-51
2023/10/27 07:50:59;;;;;;;9.30;2.15;;;10.00;99.90;;;;;;5057665;28;20073;-51
2023/10/27 07:53:28;;;;;;;11.60;3.38;;;10.20;99.90;;;;;;5057722;28;20095;-52
2023/10/27 07:55:54;;;;;;;10.35;3.13;;;10.60;99.90;;;;;;5056801;28;20135;-52
2023/10/27 07:58:24;;;;;;;12.85;3.97;;;11.00;99.90;;;;;;5057232;28;20021;-50
2023/10/27 08:00:51;;;;;;;8.50;3.40;;;11.70;99.90;;;;;;5057974;28;20102;-50
2023/10/27 08:03:17;;;;;;;8.35;2.72;;;12.30;99.90;;;;;;5057609;28;20508;-50
2023/10/27 08:05:43;;;;;;;8.25;2.72;;;12.80;99.90;;;;;;5057480;28;20033;-52
2023/10/27 08:08:09;;;;;;;8.32;2.40;;;13.00;99.90;;;;;;5056462;28;20133;-52
2023/10/27 08:10:37;;;;;;;9.82;3.95;;;12.40;99.90;;;;;;5057475;28;20108;-49
2023/10/27 08:13:03;;;;;;;9.57;2.35;;;12.50;99.90;;;;;;5057437;28;20106;-52
2023/10/27 08:15:29;;;;;;;7.18;2.10;;;12.90;99.90;;;;;;5056360;28;20064;-51
2023/10/27 08:17:54;;;;;;;7.75;2.00;;;13.00;99.90;;;;;;5057424;28;20029;-50
2023/10/27 08:20:20;;;;;;;8.05;1.90;;;12.80;99.90;;;;;;5057098;28;20406;-51
2023/10/27 08:22:46;;;;;;;5.45;2.88;;;12.90;99.90;;;;;;5056768;28;20041;-51
2023/10/27 08:25:12;;;;;;;8.27;2.30;;;13.30;99.90;;;;;;5055947;28;20033;-52
2023/10/27 08:27:38;;;;;;;7.93;3.03;;;13.70;99.90;;;;;;5056059;28;20036;-50
2023/10/27 08:30:04;;;;;;;7.68;2.95;;;13.70;99.90;;;;;;5057190;28;20056;-49
2023/10/27 08:32:30;;;;;;;11.27;3.55;;;14.20;99.90;;;;;;5055721;28;20061;-49
2023/10/27 08:34:56;;;;;;;7.78;2.80;;;13.90;99.90;;;;;;5057340;28;20071;-53
2023/10/27 08:37:21;;;;;;;17.50;8.32;;;13.60;99.90;;;;;;5057190;28;20036;-49
2023/10/27 08:39:47;;;;;;;13.57;6.68;;;13.30;99.90;;;;;;5055982;28;20029;-49
2023/10/27 08:42:13;;;;;;;6.55;3.10;;;13.30;99.90;;;;;;5056837;28;20033;-52
2023/10/27 08:44:39;;;;;;;12.00;10.73;;;14.10;99.90;;;;;;5056736;28;20106;-52
2023/10/27 08:47:05;;;;;;;13.15;6.95;;;13.90;99.90;;;;;;5056499;28;20106;-50
2023/10/27 08:49:31;;;;;;;10.25;4.72;;;13.80;99.90;;;;;;5056742;28;20041;-52
2023/10/27 08:51:58;;;;;;;10.02;3.00;;;13.50;99.90;;;;;;5056713;28;20473;-51
2023/10/27 08:54:24;;;;;;;9.13;2.45;;;13.30;99.90;;;;;;5055445;28;20094;-51
2023/10/27 08:57:15;;;;;;;9.00;3.47;;;13.20;99.90;;;;;;5057092;28;20108;-51
2023/10/27 08:59:42;;;;;;;9.43;3.45;;;13.00;99.90;;;;;;4994773;28;20046;-51
2023/10/27 09:02:07;;;;;;;8.35;4.35;;;12.90;99.90;;;;;;4997168;28;20100;-52
2023/10/27 09:04:34;;;;;;;12.52;3.42;;;12.90;99.90;;;;;;4997188;28;20474;-52
2023/10/27 09:07:00;;;;;;;10.77;4.90;;;13.00;99.90;;;;;;4996954;28;20120;-50
2023/10/27 09:12:57;;;;;;;6.90;1.50;;;13.40;99.90;;;;;;4997574;28;20056;-52
2023/10/27 09:15:22;;;;;;;7.72;1.45;;;13.90;99.90;;;;;;4996047;28;20088;-53
2023/10/27 09:17:58;;;;;;;4.03;0.93;;;15.20;99.90;;;;;;4997044;28;20105;-50
2023/10/27 09:20:24;;;;;;;7.03;1.35;;;15.00;99.90;;;;;;4996433;28;20030;-50
2023/10/27 09:23:04;;;;;;;8.40;1.10;;;15.60;99.90;;;;;;4996741;28;20026;-50
2023/10/27 09:25:31;;;;;;;5.78;1.95;;;16.50;99.90;;;;;;4996728;28;20092;-53
2023/10/27 09:27:58;;;;;;;8.38;1.25;;;16.90;99.90;;;;;;4996650;28;20427;-51
2023/10/27 09:30:30;;;;;;;4.18;0.98;;;17.30;99.90;;;;;;4996522;28;20038;-50
2023/10/27 09:33:20;;;;;;;4.28;1.13;;;17.30;99.90;;;;;;4996517;28;20358;-50
2023/10/27 09:35:46;;;;;;;5.80;1.13;;;17.40;99.90;;;;;;4994642;28;20415;-50
2023/10/27 09:38:13;;;;;;;7.47;1.17;;;18.10;99.90;;;;;;4996692;28;20035;-53
2023/10/27 09:40:39;;;;;;;7.30;1.30;;;18.60;99.90;;;;;;4995422;28;20088;-50
2023/10/27 09:43:07;;;;;;;3.97;1.13;;;18.40;99.90;;;;;;4996138;28;20117;-50
2023/10/27 09:45:34;;;;;;;4.40;1.00;;;18.20;99.90;;;;;;4996268;28;20451;-49
2023/10/27 09:48:03;;;;;;;5.60;1.20;;;17.10;99.90;;;;;;4996248;28;20026;-48
2023/10/27 09:50:29;;;;;;;8.68;1.23;;;16.00;99.90;;;;;;4996360;28;20034;-51
2023/10/27 09:53:02;;;;;;;5.95;1.20;;;15.20;99.90;;;;;;4996146;28;20026;-50
2023/10/27 09:55:28;;;;;;;5.80;0.93;;;14.80;99.90;;;;;;4996062;28;20026;-50
2023/10/27 09:57:55;;;;;;;6.90;1.38;;;14.70;99.90;;;;;;4995703;28;20459;-51
2023/10/27 10:00:25;;;;;;;4.07;0.95;;;14.80;99.90;;;;;;4995897;28;20038;-50
2023/10/27 10:02:50;;;;;;;4.97;1.10;;;14.90;99.90;;;;;;4994827;28;20423;-50
2023/10/27 10:05:16;;;;;;;5.40;1.40;;;14.90;99.90;;;;;;4996191;28;20117;-49
2023/10/27 10:07:52;;;;;;;5.00;1.90;;;14.80;99.90;;;;;;4996010;28;20081;-52
2023/10/27 10:10:20;;;;;;;4.25;1.38;;;15.00;99.90;;;;;;4996031;28;20110;-49
2023/10/27 10:13:08;;;;;;;5.53;1.45;;;15.40;99.90;;;;;;4995730;28;20038;-51
2023/10/27 10:15:38;;;;;;;8.13;1.35;;;15.80;99.90;;;;;;4995298;28;20144;-48
2023/10/27 10:18:06;;;;;;;5.32;1.27;;;16.40;99.90;;;;;;4995712;28;20027;-51
2023/10/27 10:20:52;;;;;;;6.93;2.17;;;15.90;99.90;;;;;;4995148;28;20038;-47
2023/10/27 10:23:18;;;;;;;4.40;0.80;;;15.10;99.90;;;;;;4995494;28;20030;-50
2023/10/27 10:25:51;;;;;;;4.45;1.25;;;14.70;99.90;;;;;;4978289;28;20040;-51
2023/10/27 10:28:17;;;;;;;5.20;1.45;;;14.40;99.90;;;;;;4995767;28;20169;-50
2023/10/27 10:30:44;;;;;;;6.45;3.75;;;14.60;99.90;;;;;;4995272;28;20113;-52
2023/10/27 10:33:28;;;;;;;7.72;1.23;;;14.60;99.90;;;;;;4995637;28;20057;-51
2023/10/27 10:36:10;;;;;;;5.70;1.13;;;14.60;99.90;;;;;;4994376;28;20035;-50
2023/10/27 10:38:37;;;;;;;8.40;1.27;;;14.70;99.90;;;;;;4994147;28;20427;-50
2023/10/27 10:41:03;;;;;;;10.77;4.07;;;14.80;99.90;;;;;;4995365;28;20411;-50
2023/10/27 10:43:38;;;;;;;12.05;5.55;;;15.00;99.90;;;;;;4995242;28;20058;-50
2023/10/27 10:46:11;;;;;;;3.20;1.50;;;14.90;99.90;;;;;;4994331;28;20390;-52
2023/10/27 10:48:40;;;;;;;3.72;1.17;;;14.80;99.90;;;;;;4995092;28;20031;-50
2023/10/27 10:51:29;;;;;;;5.97;1.63;;;15.70;99.90;;;;;;4995140;28;20350;-50
2023/10/27 10:53:54;;;;;;;1.55;0.90;;;15.90;99.90;;;;;;4994124;28;20126;-51
2023/10/27 10:56:20;;;;;;;4.82;2.08;;;15.80;99.90;;;;;;4994432;28;20054;-53
2023/10/27 10:58:46;;;;;;;5.10;1.42;;;15.30;99.90;;;;;;4994642;28;20470;-51
2023/10/27 11:01:19;;;;;;;3.95;1.08;;;14.80;99.90;;;;;;4994939;28;20474;-51
2023/10/27 11:03:52;;;;;;;8.18;1.20;;;14.40;99.90;;;;;;4994947;28;20049;-51
2023/10/27 11:06:25;;;;;;;3.55;1.45;;;14.20;99.90;;;;;;4994837;28;20034;-49
2023/10/27 11:08:52;;;;;;;7.35;1.98;;;14.10;99.90;;;;;;4994936;28;20061;-51
2023/10/27 11:11:18;;;;;;;7.95;2.03;;;14.10;99.90;;;;;;4994914;28;20035;-49
2023/10/27 11:13:44;;;;;;;5.55;1.85;;;14.10;99.90;;;;;;4994688;28;20038;-49
2023/10/27 11:16:14;;;;;;;4.22;1.73;;;14.20;99.90;;;;;;4994769;28;20069;-53
2023/10/27 11:18:39;;;;;;;4.63;1.95;;;15.00;99.90;;;;;;4994302;28;20026;-53
2023/10/27 11:21:05;;;;;;;4.60;1.20;;;16.50;99.90;;;;;;4994603;28;20487;-52
2023/10/27 11:23:31;;;;;;;5.60;1.35;;;17.40;99.90;;;;;;4994066;28;20118;-53
2023/10/27 11:26:02;;;;;;;5.53;1.50;;;17.00;99.90;;;;;;4993129;28;20042;-51
2023/10/27 11:28:28;;;;;;;4.28;1.50;;;16.10;99.90;;;;;;4994533;28;20079;-53
2023/10/27 11:31:19;;;;;;;7.30;4.88;;;15.80;99.90;;;;;;4992556;28;20053;-52
2023/10/27 11:34:32;;;;;;;9.57;5.15;;;15.60;99.90;;;;;;4994507;28;20038;-52
2023/10/27 11:37:00;;;;;;;13.25;8.55;;;15.10;99.90;;;;;;4993929;28;20050;-50
2023/10/27 11:39:26;;;;;;;4.22;2.03;;;14.80;99.90;;;;;;4993854;28;20074;-48
2023/10/27 11:41:54;;;;;;;12.75;8.43;;;14.60;99.90;;;;;;4993673;28;20023;-52
2023/10/27 11:44:20;;;;;;;6.80;2.75;;;14.50;99.90;;;;;;4994538;28;20126;-51
2023/10/27 11:46:46;;;;;;;6.07;1.20;;;14.50;99.90;;;;;;4994629;28;20434;-51
2023/10/27 11:49:13;;;;;;;4.20;1.90;;;14.40;99.90;;;;;;4993269;28;20451;-51
2023/10/27 11:51:38;;;;;;;5.03;1.30;;;14.30;99.90;;;;;;4994264;28;20439;-51
2023/10/27 11:54:04;;;;;;;3.17;1.05;;;14.30;99.90;;;;;;4994536;28;20039;-51
2023/10/27 11:56:30;;;;;;;4.60;0.98;;;14.70;99.90;;;;;;4994340;28;20435;-52
2023/10/27 11:58:56;;;;;;;7.45;1.45;;;14.80;99.90;;;;;;4995716;28;20337;-49
2023/10/27 12:01:21;;;;;;;6.25;1.20;;;15.00;99.90;;;;;;4997721;28;20165;-52
2023/10/27 12:03:47;;;;;;;6.10;2.35;;;15.00;99.90;;;;;;4997684;28;20045;-51
2023/10/27 12:06:13;;;;;;;6.95;2.08;;;14.80;99.90;;;;;;4998158;28;20045;-51
2023/10/27 12:08:38;;;;;;;12.35;7.30;;;15.00;99.90;;;;;;4998420;28;20034;-52
2023/10/27 12:11:04;;;;;;;4.65;1.48;;;15.20;99.90;;;;;;4998332;28;20463;-52
2023/10/27 12:13:30;;;;;;;2.67;0.80;;;15.00;99.90;;;;;;4997235;28;20056;-52
2023/10/27 12:15:55;;;;;;;1.77;1.00;;;14.70;99.90;;;;;;4998019;28;20037;-49
2023/10/27 12:18:21;;;;;;;7.35;2.08;;;15.00;99.90;;;;;;4997857;28;20022;-52
2023/10/27 12:20:49;;;;;;;4.03;1.30;;;15.20;99.90;;;;;;4997574;28;20066;-52
2023/10/27 12:23:14;;;;;;;2.30;1.65;;;15.10;99.90;;;;;;4997933;28;20045;-51
2023/10/27 12:25:40;;;;;;;4.65;1.10;;;14.90;99.90;;;;;;4997563;28;20027;-50
2023/10/27 12:28:07;;;;;;;6.25;4.50;;;14.80;99.90;;;;;;4997503;28;20038;-52
2023/10/27 12:30:33;;;;;;;5.65;1.33;;;15.00;99.90;;;;;;4997497;28;20061;-50
2023/10/27 12:32:59;;;;;;;4.13;1.17;;;15.00;99.90;;;;;;4997823;28;20031;-52
2023/10/27 12:35:27;;;;;;;4.43;1.10;;;15.10;99.90;;;;;;4997642;28;20376;-52
2023/10/27 12:37:53;;;;;;;6.07;1.65;;;15.30;99.90;;;;;;4997878;28;20030;-51
2023/10/27 12:40:20;;;;;;;1.65;0.90;;;15.40;99.90;;;;;;4997227;28;20454;-53
2023/10/27 12:42:45;;;;;;;5.75;1.48;;;15.40;99.90;;;;;;4996602;28;20090;-51
2023/10/27 12:45:13;;;;;;;5.63;1.55;;;15.50;99.90;;;;;;4979923;28;20467;-52
2023/10/27 12:47:44;;;;;;;3.47;0.98;;;15.50;99.90;;;;;;4997319;28;20136;-49
2023/10/27 12:50:10;;;;;;;3.80;1.25;;;15.40;99.90;;;;;;4997196;28;20037;-51
2023/10/27 12:52:39;;;;;;;13.80;6.40;;;15.10;99.90;;;;;;4997565;28;20023;-51